sensor_id;sensor_type;location;lat;lon;timestamp;pressure;altitude;pressure_sealevel;temperature;humidity
62055;BME280;48653;51.742;-1.256;2023-02-19T00:03:49;101587.93;;;7.77;55.03
62055;BME280;48653;51.742;-1.256;2023-02-19T00:06:11;101603.93;;;8.83;55.14
62055;BME280;48653;51.742;-1.256;2023-02-19T00:08:37;101613.92;;;9.52;55.01
62055;BME280;48653;51.742;-1.256;2023-02-19T00:11:01;101620.90;;;8.84;55.82
62055;BME280;48653;51.742;-1.256;2023-02-19T00:13:26;101636.68;;;9.06;56.38
62055;BME280;48653;51.742;-1.256;2023-02-19T00:15:51;101626.11;;;9.19;55.86
62055;BME280;48653;51.742;-1.256;2023-02-19T00:18:16;101627.12;;;9.36;56.24
62055;BME280;48653;51.742;-1.256;2023-02-19T00:20:41;101624.48;;;9.09;55.37
62055;BME280;48653;51.742;-1.256;2023-02-19T00:23:07;101637.55;;;8.75;55.43
62055;BME280;48653;51.742;-1.256;2023-02-19T00:25:35;101643.66;;;8.58;55.73
62055;BME280;48653;51.742;-1.256;2023-02-19T00:27:58;101646.61;;;8.58;56.13
62055;BME280;48653;51.742;-1.256;2023-02-19T00:30:23;101638.79;;;8.33;55.60
62055;BME280;48653;51.742;-1.256;2023-02-19T00:32:49;101634.39;;;8.43;55.04
62055;BME280;48653;51.742;-1.256;2023-02-19T00:35:13;101637.26;;;8.55;55.14
62055;BME280;48653;51.742;-1.256;2023-02-19T00:37:39;101639.08;;;8.63;55.47
62055;BME280;48653;51.742;-1.256;2023-02-19T00:40:05;101637.77;;;8.82;54.90
62055;BME280;48653;51.742;-1.256;2023-02-19T00:42:29;101639.26;;;8.60;55.42
62055;BME280;48653;51.742;-1.256;2023-02-19T00:44:54;101644.62;;;9.07;54.21
62055;BME280;48653;51.742;-1.256;2023-02-19T00:47:19;101646.44;;;8.03;55.18
62055;BME280;48653;51.742;-1.256;2023-02-19T00:49:44;101648.28;;;8.70;54.77
62055;BME280;48653;51.742;-1.256;2023-02-19T00:52:10;101646.56;;;8.95;54.26
62055;BME280;48653;51.742;-1.256;2023-02-19T00:54:35;101646.39;;;8.87;53.40
62055;BME280;48653;51.742;-1.256;2023-02-19T00:57:00;101645.27;;;8.64;53.92
62055;BME280;48653;51.742;-1.256;2023-02-19T00:59:25;101643.50;;;8.98;52.66
62055;BME280;48653;51.742;-1.256;2023-02-19T01:01:50;101644.85;;;8.98;52.41
62055;BME280;48653;51.742;-1.256;2023-02-19T01:04:16;101645.60;;;8.98;50.98
62055;BME280;48653;51.742;-1.256;2023-02-19T01:06:41;101647.88;;;8.73;51.78
62055;BME280;48653;51.742;-1.256;2023-02-19T01:09:06;101650.44;;;8.80;51.82
62055;BME280;48653;51.742;-1.256;2023-02-19T01:11:31;101648.03;;;8.61;51.33
62055;BME280;48653;51.742;-1.256;2023-02-19T01:13:57;101648.51;;;8.55;51.51
62055;BME280;48653;51.742;-1.256;2023-02-19T01:16:22;101646.88;;;8.43;51.44
62055;BME280;48653;51.742;-1.256;2023-02-19T01:18:47;101645.77;;;8.67;51.04
62055;BME280;48653;51.742;-1.256;2023-02-19T01:21:13;101647.66;;;8.30;51.07
62055;BME280;48653;51.742;-1.256;2023-02-19T01:23:38;101645.96;;;8.91;50.62
62055;BME280;48653;51.742;-1.256;2023-02-19T01:26:04;101654.45;;;8.17;50.77
62055;BME280;48653;51.742;-1.256;2023-02-19T01:28:28;101651.51;;;8.59;50.72
62055;BME280;48653;51.742;-1.256;2023-02-19T01:30:53;101651.68;;;8.47;50.65
62055;BME280;48653;51.742;-1.256;2023-02-19T01:33:18;101653.90;;;8.61;50.08
62055;BME280;48653;51.742;-1.256;2023-02-19T01:35:43;101652.78;;;8.63;50.05
62055;BME280;48653;51.742;-1.256;2023-02-19T01:38:08;101648.23;;;8.41;50.29
62055;BME280;48653;51.742;-1.256;2023-02-19T01:40:33;101651.86;;;7.84;51.50
62055;BME280;48653;51.742;-1.256;2023-02-19T01:42:58;101646.90;;;8.41;51.06
62055;BME280;48653;51.742;-1.256;2023-02-19T01:45:27;101649.78;;;8.30;50.83
62055;BME280;48653;51.742;-1.256;2023-02-19T01:47:53;101652.13;;;8.42;50.41
62055;BME280;48653;51.742;-1.256;2023-02-19T01:50:15;101654.64;;;8.25;51.05
62055;BME280;48653;51.742;-1.256;2023-02-19T01:52:40;101655.06;;;8.18;50.75
62055;BME280;48653;51.742;-1.256;2023-02-19T01:55:06;101654.13;;;8.38;50.78
62055;BME280;48653;51.742;-1.256;2023-02-19T01:57:34;101655.14;;;8.23;50.99
62055;BME280;48653;51.742;-1.256;2023-02-19T02:00:01;101663.65;;;8.53;50.08
62055;BME280;48653;51.742;-1.256;2023-02-19T02:02:21;101661.42;;;8.29;50.38
62055;BME280;48653;51.742;-1.256;2023-02-19T02:04:46;101664.39;;;8.32;50.10
62055;BME280;48653;51.742;-1.256;2023-02-19T02:07:11;101665.20;;;8.65;50.25
62055;BME280;48653;51.742;-1.256;2023-02-19T02:09:36;101669.77;;;8.29;50.15
62055;BME280;48653;51.742;-1.256;2023-02-19T02:12:01;101681.89;;;7.69;51.60
62055;BME280;48653;51.742;-1.256;2023-02-19T02:14:29;101679.84;;;8.08;51.00
62055;BME280;48653;51.742;-1.256;2023-02-19T02:16:56;101680.95;;;7.97;51.05
62055;BME280;48653;51.742;-1.256;2023-02-19T02:19:29;101680.50;;;7.86;51.50
62055;BME280;48653;51.742;-1.256;2023-02-19T02:21:50;101684.20;;;7.31;52.15
62055;BME280;48653;51.742;-1.256;2023-02-19T02:26:43;101690.62;;;8.05;51.08
62055;BME280;48653;51.742;-1.256;2023-02-19T02:29:13;101692.81;;;7.90;50.94
62055;BME280;48653;51.742;-1.256;2023-02-19T02:31:24;101695.46;;;7.68;50.57
62055;BME280;48653;51.742;-1.256;2023-02-19T02:33:52;101697.30;;;7.92;50.81
62055;BME280;48653;51.742;-1.256;2023-02-19T02:36:17;101695.66;;;7.77;52.28
62055;BME280;48653;51.742;-1.256;2023-02-19T02:38:40;101697.52;;;7.78;51.21
62055;BME280;48653;51.742;-1.256;2023-02-19T02:41:03;101696.80;;;7.78;51.46
62055;BME280;48653;51.742;-1.256;2023-02-19T02:43:27;101704.42;;;7.73;52.52
62055;BME280;48653;51.742;-1.256;2023-02-19T02:45:53;101706.05;;;7.81;50.93
62055;BME280;48653;51.742;-1.256;2023-02-19T02:48:23;101711.35;;;8.35;50.61
62055;BME280;48653;51.742;-1.256;2023-02-19T02:50:46;101708.78;;;7.09;52.52
62055;BME280;48653;51.742;-1.256;2023-02-19T02:53:13;101707.12;;;8.01;52.01
62055;BME280;48653;51.742;-1.256;2023-02-19T02:55:36;101705.03;;;7.99;50.98
62055;BME280;48653;51.742;-1.256;2023-02-19T02:57:59;101704.21;;;7.77;51.23
62055;BME280;48653;51.742;-1.256;2023-02-19T03:00:25;101708.01;;;7.56;52.24
62055;BME280;48653;51.742;-1.256;2023-02-19T03:02:49;101713.09;;;7.29;52.13
62055;BME280;48653;51.742;-1.256;2023-02-19T03:05:16;101713.63;;;7.62;51.77
62055;BME280;48653;51.742;-1.256;2023-02-19T03:07:44;101723.07;;;7.55;51.96
62055;BME280;48653;51.742;-1.256;2023-02-19T03:10:07;101731.31;;;7.25;52.43
62055;BME280;48653;51.742;-1.256;2023-02-19T03:12:30;101735.20;;;7.82;51.75
62055;BME280;48653;51.742;-1.256;2023-02-19T03:14:57;101737.18;;;8.18;50.73
62055;BME280;48653;51.742;-1.256;2023-02-19T03:17:23;101741.08;;;8.54;49.58
62055;BME280;48653;51.742;-1.256;2023-02-19T03:19:48;101738.73;;;8.57;48.71
62055;BME280;48653;51.742;-1.256;2023-02-19T03:22:14;101736.91;;;8.14;50.00
62055;BME280;48653;51.742;-1.256;2023-02-19T03:24:42;101739.65;;;8.48;49.72
62055;BME280;48653;51.742;-1.256;2023-02-19T03:27:01;101750.92;;;8.53;49.75
62055;BME280;48653;51.742;-1.256;2023-02-19T03:29:29;101750.81;;;8.09;49.54
62055;BME280;48653;51.742;-1.256;2023-02-19T03:31:53;101750.34;;;8.23;49.88
62055;BME280;48653;51.742;-1.256;2023-02-19T03:34:19;101755.36;;;8.45;49.93
62055;BME280;48653;51.742;-1.256;2023-02-19T03:36:44;101760.88;;;8.45;49.24
62055;BME280;48653;51.742;-1.256;2023-02-19T03:39:08;101765.84;;;7.98;49.52
62055;BME280;48653;51.742;-1.256;2023-02-19T03:41:35;101768.06;;;8.34;48.93
62055;BME280;48653;51.742;-1.256;2023-02-19T03:44:04;101766.74;;;9.08;48.15
62055;BME280;48653;51.742;-1.256;2023-02-19T03:46:26;101772.33;;;8.23;49.04
62055;BME280;48653;51.742;-1.256;2023-02-19T03:48:50;101781.33;;;8.27;48.40
62055;BME280;48653;51.742;-1.256;2023-02-19T03:51:21;101788.85;;;8.60;48.37
62055;BME280;48653;51.742;-1.256;2023-02-19T03:53:44;101799.73;;;8.43;48.59
62055;BME280;48653;51.742;-1.256;2023-02-19T03:56:06;101809.85;;;9.01;48.04
62055;BME280;48653;51.742;-1.256;2023-02-19T03:58:30;101806.45;;;8.53;48.39
62055;BME280;48653;51.742;-1.256;2023-02-19T04:00:55;101803.71;;;9.04;48.01
62055;BME280;48653;51.742;-1.256;2023-02-19T04:03:22;101798.28;;;8.09;49.32
62055;BME280;48653;51.742;-1.256;2023-02-19T04:05:46;101797.02;;;8.07;50.27
62055;BME280;48653;51.742;-1.256;2023-02-19T04:08:11;101802.11;;;8.26;50.06
62055;BME280;48653;51.742;-1.256;2023-02-19T04:10:33;101799.62;;;7.96;50.65
62055;BME280;48653;51.742;-1.256;2023-02-19T04:13:01;101803.14;;;8.29;50.04
62055;BME280;48653;51.742;-1.256;2023-02-19T04:15:26;101808.42;;;8.29;50.22
62055;BME280;48653;51.742;-1.256;2023-02-19T04:17:52;101816.11;;;8.31;49.59
62055;BME280;48653;51.742;-1.256;2023-02-19T04:20:13;101818.94;;;9.14;48.61
62055;BME280;48653;51.742;-1.256;2023-02-19T04:22:39;101818.12;;;8.91;49.07
62055;BME280;48653;51.742;-1.256;2023-02-19T04:25:04;101817.68;;;8.71;48.47
62055;BME280;48653;51.742;-1.256;2023-02-19T04:27:29;101825.63;;;9.10;48.35
62055;BME280;48653;51.742;-1.256;2023-02-19T04:29:55;101835.57;;;9.08;47.84
62055;BME280;48653;51.742;-1.256;2023-02-19T04:32:20;101837.78;;;8.61;48.61
62055;BME280;48653;51.742;-1.256;2023-02-19T04:34:45;101841.90;;;8.67;48.48
62055;BME280;48653;51.742;-1.256;2023-02-19T04:37:11;101837.13;;;9.30;48.25
62055;BME280;48653;51.742;-1.256;2023-02-19T04:39:36;101841.05;;;8.30;49.72
62055;BME280;48653;51.742;-1.256;2023-02-19T04:42:01;101836.74;;;8.40;49.97
62055;BME280;48653;51.742;-1.256;2023-02-19T04:44:26;101833.49;;;8.16;49.98
62055;BME280;48653;51.742;-1.256;2023-02-19T04:46:51;101838.98;;;7.82;50.62
62055;BME280;48653;51.742;-1.256;2023-02-19T04:49:17;101846.28;;;8.38;50.14
62055;BME280;48653;51.742;-1.256;2023-02-19T04:51:42;101855.69;;;8.71;49.44
62055;BME280;48653;51.742;-1.256;2023-02-19T04:54:07;101857.25;;;7.93;50.23
62055;BME280;48653;51.742;-1.256;2023-02-19T04:56:33;101863.74;;;8.29;50.21
62055;BME280;48653;51.742;-1.256;2023-02-19T04:58:58;101855.96;;;8.53;49.68
62055;BME280;48653;51.742;-1.256;2023-02-19T05:01:23;101854.45;;;8.18;50.25
62055;BME280;48653;51.742;-1.256;2023-02-19T05:03:48;101851.16;;;7.79;50.68
62055;BME280;48653;51.742;-1.256;2023-02-19T05:06:13;101849.79;;;8.06;50.69
62055;BME280;48653;51.742;-1.256;2023-02-19T05:08:39;101851.73;;;8.37;49.94
62055;BME280;48653;51.742;-1.256;2023-02-19T05:11:05;101864.25;;;8.03;50.13
62055;BME280;48653;51.742;-1.256;2023-02-19T05:13:29;101866.43;;;7.68;51.04
62055;BME280;48653;51.742;-1.256;2023-02-19T05:15:55;101871.65;;;7.62;50.70
62055;BME280;48653;51.742;-1.256;2023-02-19T05:18:18;101872.75;;;7.95;50.22
62055;BME280;48653;51.742;-1.256;2023-02-19T05:20:44;101867.92;;;8.01;50.46
62055;BME280;48653;51.742;-1.256;2023-02-19T05:23:09;101866.71;;;8.18;50.11
62055;BME280;48653;51.742;-1.256;2023-02-19T05:25:34;101872.86;;;8.30;49.58
62055;BME280;48653;51.742;-1.256;2023-02-19T05:27:59;101880.19;;;8.20;49.64
62055;BME280;48653;51.742;-1.256;2023-02-19T05:30:25;101889.66;;;8.30;49.55
62055;BME280;48653;51.742;-1.256;2023-02-19T05:32:50;101895.24;;;8.25;49.28
62055;BME280;48653;51.742;-1.256;2023-02-19T05:35:16;101898.00;;;8.30;49.29
62055;BME280;48653;51.742;-1.256;2023-02-19T05:37:41;101886.87;;;7.55;50.30
62055;BME280;48653;51.742;-1.256;2023-02-19T05:40:07;101888.69;;;8.36;48.50
62055;BME280;48653;51.742;-1.256;2023-02-19T05:42:31;101894.18;;;8.24;49.13
62055;BME280;48653;51.742;-1.256;2023-02-19T05:44:56;101893.00;;;7.61;50.18
62055;BME280;48653;51.742;-1.256;2023-02-19T05:47:21;101900.27;;;8.61;48.76
62055;BME280;48653;51.742;-1.256;2023-02-19T05:49:47;101908.01;;;7.99;49.75
62055;BME280;48653;51.742;-1.256;2023-02-19T05:52:12;101910.71;;;8.04;49.47
62055;BME280;48653;51.742;-1.256;2023-02-19T05:54:37;101911.78;;;8.04;49.35
62055;BME280;48653;51.742;-1.256;2023-02-19T05:57:02;101915.61;;;7.83;49.79
62055;BME280;48653;51.742;-1.256;2023-02-19T05:59:27;101924.24;;;7.81;49.42
62055;BME280;48653;51.742;-1.256;2023-02-19T06:01:53;101928.03;;;7.50;49.96
62055;BME280;48653;51.742;-1.256;2023-02-19T06:04:18;101935.53;;;7.74;49.94
62055;BME280;48653;51.742;-1.256;2023-02-19T06:06:43;101940.80;;;8.20;49.20
62055;BME280;48653;51.742;-1.256;2023-02-19T06:09:09;101943.85;;;8.17;49.13
62055;BME280;48653;51.742;-1.256;2023-02-19T06:11:33;101941.87;;;8.07;49.49
62055;BME280;48653;51.742;-1.256;2023-02-19T06:13:58;101938.96;;;7.56;49.99
62055;BME280;48653;51.742;-1.256;2023-02-19T06:16:23;101943.20;;;7.72;50.43
62055;BME280;48653;51.742;-1.256;2023-02-19T06:18:49;101948.78;;;7.77;50.27
62055;BME280;48653;51.742;-1.256;2023-02-19T06:21:15;101955.28;;;8.45;48.99
62055;BME280;48653;51.742;-1.256;2023-02-19T06:23:38;101949.53;;;7.99;49.75
62055;BME280;48653;51.742;-1.256;2023-02-19T06:26:07;101948.82;;;7.50;50.61
62055;BME280;48653;51.742;-1.256;2023-02-19T06:28:29;101950.78;;;7.71;50.34
62055;BME280;48653;51.742;-1.256;2023-02-19T06:30:54;101957.34;;;8.52;48.82
62055;BME280;48653;51.742;-1.256;2023-02-19T06:33:19;101953.76;;;8.39;49.08
62055;BME280;48653;51.742;-1.256;2023-02-19T06:35:45;101949.81;;;7.59;50.41
62055;BME280;48653;51.742;-1.256;2023-02-19T06:38:10;101948.11;;;7.97;50.10
62055;BME280;48653;51.742;-1.256;2023-02-19T06:40:35;101952.55;;;7.87;50.19
62055;BME280;48653;51.742;-1.256;2023-02-19T06:43:00;101947.09;;;7.87;49.74
62055;BME280;48653;51.742;-1.256;2023-02-19T06:45:25;101946.16;;;8.07;49.83
62055;BME280;48653;51.742;-1.256;2023-02-19T06:47:51;101957.16;;;7.77;50.50
62055;BME280;48653;51.742;-1.256;2023-02-19T06:50:16;101953.66;;;8.21;49.80
62055;BME280;48653;51.742;-1.256;2023-02-19T06:52:41;101956.35;;;8.02;50.10
62055;BME280;48653;51.742;-1.256;2023-02-19T06:55:07;101962.59;;;7.60;50.89
62055;BME280;48653;51.742;-1.256;2023-02-19T06:57:31;101965.68;;;7.69;50.71
62055;BME280;48653;51.742;-1.256;2023-02-19T06:59:56;101975.54;;;7.66;50.93
62055;BME280;48653;51.742;-1.256;2023-02-19T07:02:22;101985.77;;;7.46;51.89
62055;BME280;48653;51.742;-1.256;2023-02-19T07:04:47;101998.97;;;7.55;52.32
62055;BME280;48653;51.742;-1.256;2023-02-19T07:07:12;102012.40;;;7.43;52.00
62055;BME280;48653;51.742;-1.256;2023-02-19T07:09:37;102011.17;;;7.27;51.87
62055;BME280;48653;51.742;-1.256;2023-02-19T07:12:03;102006.98;;;7.83;51.94
62055;BME280;48653;51.742;-1.256;2023-02-19T07:14:28;102005.10;;;7.40;52.71
62055;BME280;48653;51.742;-1.256;2023-02-19T07:16:53;102013.75;;;7.29;53.04
62055;BME280;48653;51.742;-1.256;2023-02-19T07:19:18;102013.64;;;6.93;54.55
62055;BME280;48653;51.742;-1.256;2023-02-19T07:21:43;102022.04;;;6.74;54.44
62055;BME280;48653;51.742;-1.256;2023-02-19T07:24:09;102022.27;;;7.16;53.85
62055;BME280;48653;51.742;-1.256;2023-02-19T07:26:34;102021.29;;;6.62;55.26
62055;BME280;48653;51.742;-1.256;2023-02-19T07:28:59;102031.70;;;7.27;53.98
62055;BME280;48653;51.742;-1.256;2023-02-19T07:31:24;102036.03;;;7.31;54.48
62055;BME280;48653;51.742;-1.256;2023-02-19T07:33:49;102039.30;;;7.17;54.26
62055;BME280;48653;51.742;-1.256;2023-02-19T07:36:15;102041.69;;;7.35;53.18
62055;BME280;48653;51.742;-1.256;2023-02-19T07:38:39;102043.30;;;7.16;53.41
62055;BME280;48653;51.742;-1.256;2023-02-19T07:41:06;102041.77;;;7.95;52.93
62055;BME280;48653;51.742;-1.256;2023-02-19T07:43:31;102049.31;;;7.54;53.10
62055;BME280;48653;51.742;-1.256;2023-02-19T07:45:55;102063.58;;;7.43;52.89
62055;BME280;48653;51.742;-1.256;2023-02-19T07:48:21;102069.07;;;8.09;52.01
62055;BME280;48653;51.742;-1.256;2023-02-19T07:50:50;102072.62;;;8.08;51.45
62055;BME280;48653;51.742;-1.256;2023-02-19T07:53:11;102077.89;;;8.49;50.65
62055;BME280;48653;51.742;-1.256;2023-02-19T07:55:36;102076.06;;;8.38;50.91
62055;BME280;48653;51.742;-1.256;2023-02-19T07:58:01;102072.32;;;8.17;51.35
62055;BME280;48653;51.742;-1.256;2023-02-19T08:00:26;102075.37;;;8.18;51.48
62055;BME280;48653;51.742;-1.256;2023-02-19T08:02:52;102071.39;;;7.89;52.13
62055;BME280;48653;51.742;-1.256;2023-02-19T08:05:17;102085.43;;;7.78;52.31
62055;BME280;48653;51.742;-1.256;2023-02-19T08:07:42;102115.17;;;7.35;53.46
62055;BME280;48653;51.742;-1.256;2023-02-19T08:10:08;102124.68;;;7.37;54.04
62055;BME280;48653;51.742;-1.256;2023-02-19T08:12:33;102112.42;;;7.20;53.77
62055;BME280;48653;51.742;-1.256;2023-02-19T08:14:58;102111.83;;;7.40;54.68
62055;BME280;48653;51.742;-1.256;2023-02-19T08:17:23;102115.72;;;7.22;54.05
62055;BME280;48653;51.742;-1.256;2023-02-19T08:19:48;102121.57;;;7.60;53.04
62055;BME280;48653;51.742;-1.256;2023-02-19T08:22:13;102133.18;;;7.45;53.38
62055;BME280;48653;51.742;-1.256;2023-02-19T08:24:38;102149.25;;;7.60;52.98
62055;BME280;48653;51.742;-1.256;2023-02-19T08:27:03;102148.96;;;8.11;51.93
62055;BME280;48653;51.742;-1.256;2023-02-19T08:29:29;102138.46;;;8.26;51.35
62055;BME280;48653;51.742;-1.256;2023-02-19T08:31:54;102111.67;;;8.43;50.74
62055;BME280;48653;51.742;-1.256;2023-02-19T08:34:19;102111.23;;;8.99;50.18
62055;BME280;48653;51.742;-1.256;2023-02-19T08:36:44;102112.58;;;8.20;50.57
62055;BME280;48653;51.742;-1.256;2023-02-19T08:39:09;102116.16;;;8.63;49.94
62055;BME280;48653;51.742;-1.256;2023-02-19T08:41:34;102117.31;;;9.05;49.55
62055;BME280;48653;51.742;-1.256;2023-02-19T08:43:59;102123.32;;;9.06;49.43
62055;BME280;48653;51.742;-1.256;2023-02-19T08:46:24;102107.08;;;9.62;48.47
62055;BME280;48653;51.742;-1.256;2023-02-19T08:48:49;102107.65;;;8.94;49.35
62055;BME280;48653;51.742;-1.256;2023-02-19T08:51:14;102106.64;;;9.00;49.09
62055;BME280;48653;51.742;-1.256;2023-02-19T08:53:40;102108.68;;;9.20;48.76
62055;BME280;48653;51.742;-1.256;2023-02-19T08:56:06;102113.14;;;9.04;49.59
62055;BME280;48653;51.742;-1.256;2023-02-19T08:58:30;102105.36;;;8.46;50.40
62055;BME280;48653;51.742;-1.256;2023-02-19T09:00:56;102110.38;;;8.12;51.58
62055;BME280;48653;51.742;-1.256;2023-02-19T09:03:21;102115.84;;;8.78;50.21
62055;BME280;48653;51.742;-1.256;2023-02-19T09:05:48;102116.18;;;8.23;50.45
62055;BME280;48653;51.742;-1.256;2023-02-19T09:08:12;102126.51;;;8.71;50.73
62055;BME280;48653;51.742;-1.256;2023-02-19T09:10:37;102138.59;;;7.85;51.32
62055;BME280;48653;51.742;-1.256;2023-02-19T09:13:02;102141.68;;;8.41;50.63
62055;BME280;48653;51.742;-1.256;2023-02-19T09:15:26;102131.05;;;8.87;49.37
62055;BME280;48653;51.742;-1.256;2023-02-19T09:17:51;102129.63;;;9.58;48.85
62055;BME280;48653;51.742;-1.256;2023-02-19T09:20:17;102138.54;;;9.53;48.26
62055;BME280;48653;51.742;-1.256;2023-02-19T09:22:41;102134.80;;;9.44;47.83
62055;BME280;48653;51.742;-1.256;2023-02-19T09:25:08;102134.55;;;9.95;47.18
62055;BME280;48653;51.742;-1.256;2023-02-19T09:27:32;102144.39;;;10.15;47.28
62055;BME280;48653;51.742;-1.256;2023-02-19T09:29:57;102146.11;;;10.54;46.59
62055;BME280;48653;51.742;-1.256;2023-02-19T09:32:22;102149.52;;;11.02;46.73
62055;BME280;48653;51.742;-1.256;2023-02-19T09:34:48;102153.44;;;11.36;45.85
62055;BME280;48653;51.742;-1.256;2023-02-19T09:37:13;102152.97;;;11.30;44.64
62055;BME280;48653;51.742;-1.256;2023-02-19T09:39:38;102167.72;;;11.23;44.79
62055;BME280;48653;51.742;-1.256;2023-02-19T09:42:10;102167.22;;;11.76;43.90
62055;BME280;48653;51.742;-1.256;2023-02-19T09:44:31;102167.70;;;11.85;43.48
62055;BME280;48653;51.742;-1.256;2023-02-19T09:46:54;102178.51;;;13.00;42.64
62055;BME280;48653;51.742;-1.256;2023-02-19T09:49:20;102181.69;;;12.34;42.25
62055;BME280;48653;51.742;-1.256;2023-02-19T09:51:47;102186.02;;;13.34;41.10
62055;BME280;48653;51.742;-1.256;2023-02-19T09:54:16;102191.60;;;13.56;41.19
62055;BME280;48653;51.742;-1.256;2023-02-19T09:56:34;102193.47;;;13.50;40.04
62055;BME280;48653;51.742;-1.256;2023-02-19T09:59:00;102192.26;;;13.63;39.88
62055;BME280;48653;51.742;-1.256;2023-02-19T10:01:27;102197.25;;;14.77;39.11
62055;BME280;48653;51.742;-1.256;2023-02-19T10:03:50;102192.88;;;14.42;38.81
62055;BME280;48653;51.742;-1.256;2023-02-19T10:06:17;102187.93;;;15.07;38.60
62055;BME280;48653;51.742;-1.256;2023-02-19T10:08:40;102184.48;;;15.49;37.06
62055;BME280;48653;51.742;-1.256;2023-02-19T10:11:05;102177.24;;;15.36;36.44
62055;BME280;48653;51.742;-1.256;2023-02-19T10:13:33;102174.90;;;15.69;36.62
62055;BME280;48653;51.742;-1.256;2023-02-19T10:15:57;102183.76;;;15.98;35.25
62055;BME280;48653;51.742;-1.256;2023-02-19T10:18:22;102181.38;;;16.75;35.29
62055;BME280;48653;51.742;-1.256;2023-02-19T10:20:46;102183.34;;;16.76;35.07
62055;BME280;48653;51.742;-1.256;2023-02-19T10:23:13;102186.66;;;16.59;34.60
62055;BME280;48653;51.742;-1.256;2023-02-19T10:25:39;102189.33;;;16.86;34.16
62055;BME280;48653;51.742;-1.256;2023-02-19T10:28:01;102177.72;;;16.51;35.85
62055;BME280;48653;51.742;-1.256;2023-02-19T10:30:29;102177.22;;;16.22;36.72
62055;BME280;48653;51.742;-1.256;2023-02-19T10:32:59;102183.74;;;15.84;35.75
62055;BME280;48653;51.742;-1.256;2023-02-19T10:35:16;102195.48;;;15.33;36.79
62055;BME280;48653;51.742;-1.256;2023-02-19T10:37:42;102196.79;;;14.70;37.60
62055;BME280;48653;51.742;-1.256;2023-02-19T10:40:12;102186.60;;;15.13;37.46
62055;BME280;48653;51.742;-1.256;2023-02-19T10:42:31;102185.83;;;13.98;38.90
62055;BME280;48653;51.742;-1.256;2023-02-19T10:44:58;102182.55;;;14.13;38.60
62055;BME280;48653;51.742;-1.256;2023-02-19T10:47:24;102183.10;;;13.49;39.75
62055;BME280;48653;51.742;-1.256;2023-02-19T10:49:47;102183.46;;;14.48;39.60
62055;BME280;48653;51.742;-1.256;2023-02-19T10:52:14;102194.06;;;14.42;38.31
62055;BME280;48653;51.742;-1.256;2023-02-19T10:54:36;102193.58;;;13.78;39.01
62055;BME280;48653;51.742;-1.256;2023-02-19T10:57:19;102191.00;;;12.85;40.84
62055;BME280;48653;51.742;-1.256;2023-02-19T10:59:28;102189.26;;;13.06;40.48
62055;BME280;48653;51.742;-1.256;2023-02-19T11:01:53;102186.67;;;13.49;40.57
62055;BME280;48653;51.742;-1.256;2023-02-19T11:04:17;102190.21;;;12.97;40.63
62055;BME280;48653;51.742;-1.256;2023-02-19T11:06:43;102193.67;;;13.25;41.03
62055;BME280;48653;51.742;-1.256;2023-02-19T11:11:35;102205.97;;;14.51;38.83
62055;BME280;48653;51.742;-1.256;2023-02-19T11:14:00;102216.99;;;13.19;39.56
62055;BME280;48653;51.742;-1.256;2023-02-19T11:16:23;102217.47;;;13.78;38.99
62055;BME280;48653;51.742;-1.256;2023-02-19T11:18:53;102201.92;;;13.68;38.93
62055;BME280;48653;51.742;-1.256;2023-02-19T11:21:22;102199.39;;;14.75;38.09
62055;BME280;48653;51.742;-1.256;2023-02-19T11:23:44;102197.71;;;14.25;38.61
62055;BME280;48653;51.742;-1.256;2023-02-19T11:26:05;102194.29;;;13.39;39.09
62055;BME280;48653;51.742;-1.256;2023-02-19T11:28:31;102196.10;;;14.12;38.80
62055;BME280;48653;51.742;-1.256;2023-02-19T11:30:53;102201.40;;;14.47;38.66
62055;BME280;48653;51.742;-1.256;2023-02-19T11:33:23;102199.93;;;14.36;38.28
62055;BME280;48653;51.742;-1.256;2023-02-19T11:35:44;102208.76;;;14.28;37.39
62055;BME280;48653;51.742;-1.256;2023-02-19T11:38:11;102210.80;;;13.93;38.82
62055;BME280;48653;51.742;-1.256;2023-02-19T11:40:40;102202.09;;;13.90;38.96
62055;BME280;48653;51.742;-1.256;2023-02-19T11:43:06;102200.47;;;14.68;37.35
62055;BME280;48653;51.742;-1.256;2023-02-19T11:45:32;102199.47;;;14.57;36.25
62055;BME280;48653;51.742;-1.256;2023-02-19T11:48:04;102194.95;;;14.98;36.31
62055;BME280;48653;51.742;-1.256;2023-02-19T11:50:21;102192.18;;;15.27;36.08
62055;BME280;48653;51.742;-1.256;2023-02-19T11:52:45;102185.19;;;15.13;35.73
62055;BME280;48653;51.742;-1.256;2023-02-19T11:55:09;102176.98;;;15.27;35.18
62055;BME280;48653;51.742;-1.256;2023-02-19T11:57:39;102171.69;;;14.93;35.72
62055;BME280;48653;51.742;-1.256;2023-02-19T11:59:58;102168.69;;;14.95;36.13
62055;BME280;48653;51.742;-1.256;2023-02-19T12:02:36;102163.80;;;15.04;35.37
62055;BME280;48653;51.742;-1.256;2023-02-19T12:04:53;102152.60;;;14.96;35.88
62055;BME280;48653;51.742;-1.256;2023-02-19T12:07:17;102154.94;;;14.07;37.36
62055;BME280;48653;51.742;-1.256;2023-02-19T12:09:43;102148.79;;;14.48;36.52
62055;BME280;48653;51.742;-1.256;2023-02-19T12:12:14;102135.85;;;14.36;36.28
62055;BME280;48653;51.742;-1.256;2023-02-19T12:14:37;102137.00;;;14.13;36.64
62055;BME280;48653;51.742;-1.256;2023-02-19T12:16:54;102134.49;;;12.58;38.30
62055;BME280;48653;51.742;-1.256;2023-02-19T12:19:31;102126.03;;;14.08;37.35
62055;BME280;48653;51.742;-1.256;2023-02-19T12:21:49;102126.64;;;13.20;37.98
62055;BME280;48653;51.742;-1.256;2023-02-19T12:24:24;102117.16;;;13.28;36.91
62055;BME280;48653;51.742;-1.256;2023-02-19T12:26:36;102117.49;;;14.21;36.68
62055;BME280;48653;51.742;-1.256;2023-02-19T12:29:12;102116.47;;;13.44;36.90
62055;BME280;48653;51.742;-1.256;2023-02-19T12:31:39;102110.75;;;13.29;38.59
62055;BME280;48653;51.742;-1.256;2023-02-19T12:36:18;102116.35;;;13.52;37.60
62055;BME280;48653;51.742;-1.256;2023-02-19T12:38:42;102116.05;;;14.01;37.88
62055;BME280;48653;51.742;-1.256;2023-02-19T12:41:15;102119.56;;;14.19;37.23
62055;BME280;48653;51.742;-1.256;2023-02-19T12:43:28;102113.42;;;14.31;37.38
62055;BME280;48653;51.742;-1.256;2023-02-19T12:45:55;102117.63;;;14.27;36.73